LEMGLEBA

Guest
Details From LEMG - Malaga
To LEBA - Cordoba
Flight Number -
Tags generated
Created
Modified
Stats Distance 72 nm / 133 km
Max Altitude 2,000 ft / 610 m
Waypoints 3
Social Downloads 4
Likes 0
Share VATSIM

Download

Looking for another format? Having issues loading an existing format? Contact us
Advertisement - Login to hide

Notes

Basic altitude profile: - Ascent Rate: 700ft/min - Ascent Speed: 90kts - Cruise Altitude: 3000ft - Cruise Speed: 110kts - Descent Rate: 700ft/min - Descent Speed: 110kts

Route

LEMG VULPE LEBA

ID Type Via Altitude Latitude Longitude Leg Dist Tot Dist Heading (true) Name
O LEMG APT - 0 ft / 0 m 36.67978˚ -4.49590˚ - 0 nm - Malaga
VULPE FIX - 2,000 ft / 610 m 37.76122˚ -4.79843˚ 66 nm 66 nm 348° / 347° -
O LEBA APT - 0 ft / 0 m 37.84315˚ -4.84806˚ 5 nm 71 nm 334° / 334° Cordoba

Altitude Profile

Advertisement - Login to hide

LEMG

Details ICAO LEMG (AGP)
Name Malaga
Region Spain
Timezone Europe/Madrid (UTC+1.0)
Stats Elevation 52 ft / 16 m (AMSL)
Location 36.679780° -4.495899°
Runways 2
Magnetic Variation 0.876° W

METAR

LEMG 172100Z 31003KT 9999 FEW040 09/05 Q1031 NOSIG

Decode

TAF

TAF LEMG 171700Z 1718/1818 13006KT CAVOK TX16/1814Z TN05/1806Z BECMG 1719/1721 30005KT BECMG 1810/1812 13006KT

Decode

Departure Runways

ID Width Length Bearing (true) Bearing (mag) Surface Threshold Offset Overrun Length
12 148 ft / 45 m 10,057 ft / 3,065 m 117.76° 118.64° Asphalt 0 ft / 0 m 650 ft / 198 m
13 148 ft / 45 m 10,509 ft / 3,203 m 131.69° 132.57° Asphalt 0 ft / 0 m 246 ft / 75 m
30 148 ft / 45 m 10,057 ft / 3,065 m 297.78° 298.66° Asphalt 1,115 ft / 340 m 466 ft / 142 m
31 148 ft / 45 m 10,509 ft / 3,203 m 311.70° 312.58° Asphalt 0 ft / 0 m 246 ft / 75 m

LEBA

Details ICAO LEBA (ODB)
Name Cordoba
Region Spain
Timezone Europe/Madrid (UTC+1.0)
Stats Elevation 296 ft / 90 m (AMSL)
Location 37.843152° -4.848064°
Runways 1
Magnetic Variation 0.991° W

METAR

LEBA 172100Z AUTO 00000KT 9999 NCD 04/01 Q1031

Decode

TAF

Not found

Destination Runways

ID Width Length Bearing (true) Bearing (mag) Surface Threshold Offset Overrun Length
03 197 ft / 60 m 7,224 ft / 2,202 m 28.69° 29.68° Asphalt 0 ft / 0 m 0 ft / 0 m
21 197 ft / 60 m 7,224 ft / 2,202 m 208.70° 209.69° Asphalt 1,939 ft / 591 m 0 ft / 0 m